createdAt,value
2018-02-19T00:02:02.026Z,28.40
2018-02-19T00:04:29.458Z,27.70
2018-02-19T00:06:57.683Z,28.40
2018-02-19T00:09:25.147Z,32.93
2018-02-19T00:11:52.589Z,31.27
2018-02-19T00:14:20.033Z,36.10
2018-02-19T00:16:47.491Z,30.70
2018-02-19T00:19:14.940Z,31.13
2018-02-19T00:21:42.377Z,30.13
2018-02-19T00:24:10.611Z,26.60
2018-02-19T00:26:38.043Z,25.40
2018-02-19T00:29:05.495Z,28.03
2018-02-19T00:31:32.970Z,34.20
2018-02-19T00:34:00.409Z,32.70
2018-02-19T00:36:27.873Z,29.60
2018-02-19T00:38:55.337Z,27.20
2018-02-19T00:41:22.801Z,23.87
2018-02-19T00:43:51.013Z,30.13
2018-02-19T00:46:18.480Z,25.50
2018-02-19T00:48:45.916Z,26.13
2018-02-19T00:51:13.379Z,32.93
2018-02-19T00:53:40.886Z,25.50
2018-02-19T00:56:08.329Z,22.37
2018-02-19T00:58:35.773Z,27.83
2018-02-19T01:01:04.001Z,26.90
2018-02-19T01:03:31.457Z,33.60
2018-02-19T01:05:58.910Z,23.80
2018-02-19T01:08:27.362Z,28.17
2018-02-19T01:10:54.810Z,27.00
2018-02-19T01:13:22.260Z,32.40
2018-02-19T01:15:50.475Z,29.60
2018-02-19T01:18:17.935Z,23.93
2018-02-19T01:20:45.395Z,28.80
2018-02-19T01:23:12.850Z,24.60
2018-02-19T01:25:40.299Z,23.07
2018-02-19T01:28:07.741Z,27.80
2018-02-19T01:30:35.188Z,32.17
2018-02-19T01:33:02.644Z,27.60
2018-02-19T01:35:30.096Z,26.37
2018-02-19T01:37:58.314Z,26.80
2018-02-19T01:40:25.764Z,21.33
2018-02-19T01:42:53.208Z,22.87
2018-02-19T01:45:20.650Z,27.40
2018-02-19T01:47:48.093Z,26.20
2018-02-19T01:50:16.312Z,24.10
2018-02-19T01:52:43.766Z,27.13
2018-02-19T01:55:11.209Z,26.20
2018-02-19T01:57:38.665Z,27.50
2018-02-19T02:00:06.120Z,29.93
2018-02-19T02:02:33.564Z,32.90
2018-02-19T02:05:01.033Z,29.77
2018-02-19T02:07:28.477Z,31.60
2018-02-19T02:09:56.699Z,28.10
2018-02-19T02:12:24.155Z,30.63
2018-02-19T02:14:51.603Z,23.10
2018-02-19T02:17:19.054Z,28.47
2018-02-19T02:19:46.511Z,24.30
2018-02-19T02:22:13.967Z,23.13
2018-02-19T02:24:41.426Z,22.77
2018-02-19T02:27:08.883Z,27.30
2018-02-19T02:29:36.335Z,30.60
2018-02-19T02:32:03.793Z,24.30
2018-02-19T02:34:31.251Z,32.03
2018-02-19T02:36:58.713Z,25.43
2018-02-19T02:39:26.447Z,27.63
2018-02-19T02:41:54.666Z,32.03
2018-02-19T02:44:22.125Z,31.83
2018-02-19T02:46:49.595Z,31.00
2018-02-19T02:49:17.057Z,34.53
2018-02-19T02:51:44.516Z,33.57
2018-02-19T02:54:11.974Z,32.20
2018-02-19T02:56:39.450Z,30.27
2018-02-19T02:59:06.901Z,30.70
2018-02-19T03:01:34.355Z,32.37
2018-02-19T03:04:01.819Z,31.23
2018-02-19T03:06:29.257Z,35.10
2018-02-19T03:08:56.760Z,35.57
2018-02-19T03:11:24.215Z,31.63
2018-02-19T03:13:51.684Z,32.50
2018-02-19T03:16:19.156Z,40.00
2018-02-19T03:18:46.611Z,34.00
2018-02-19T03:21:14.072Z,33.60
2018-02-19T03:23:41.524Z,32.23
2018-02-19T03:26:08.980Z,29.43
2018-02-19T03:28:36.438Z,34.80
2018-02-19T03:31:03.907Z,34.93
2018-02-19T03:33:31.360Z,34.33
2018-02-19T03:35:58.820Z,28.00
2018-02-19T03:38:26.265Z,29.23
2018-02-19T03:40:53.734Z,35.83
2018-02-19T03:43:21.170Z,32.43
2018-02-19T03:45:48.631Z,27.03
2018-02-19T03:48:16.082Z,35.80
2018-02-19T03:50:43.530Z,25.90
2018-02-19T03:53:11.763Z,31.83
2018-02-19T03:55:39.246Z,30.13
2018-02-19T03:58:06.679Z,32.30
2018-02-19T04:00:34.139Z,36.23
2018-02-19T04:03:01.586Z,35.03
2018-02-19T04:05:29.047Z,31.80
2018-02-19T04:07:56.510Z,31.67
2018-02-19T04:10:23.945Z,27.90
2018-02-19T04:12:51.395Z,36.00
2018-02-19T04:15:18.854Z,39.60
2018-02-19T04:17:46.320Z,32.97
2018-02-19T04:20:13.775Z,34.93
2018-02-19T04:22:41.222Z,32.73
2018-02-19T04:25:08.684Z,37.00
2018-02-19T04:27:36.132Z,33.17
2018-02-19T04:30:03.593Z,33.70
2018-02-19T04:32:31.034Z,33.00
2018-02-19T04:34:58.493Z,34.27
2018-02-19T04:37:25.947Z,33.07
2018-02-19T04:39:53.405Z,31.00
2018-02-19T04:42:20.854Z,40.77
2018-02-19T04:44:50.163Z,35.70
2018-02-19T04:47:17.573Z,33.63
2018-02-19T04:49:45.046Z,44.80
2018-02-19T04:52:12.522Z,34.87
2018-02-19T04:54:40.751Z,30.27
2018-02-19T04:57:08.209Z,36.57
2018-02-19T04:59:35.655Z,34.30
2018-02-19T05:02:03.113Z,38.20
2018-02-19T05:04:30.554Z,38.07
2018-02-19T05:06:58.017Z,37.40
2018-02-19T05:09:25.472Z,28.80
2018-02-19T05:11:52.931Z,36.37
2018-02-19T05:14:20.398Z,40.30
2018-02-19T05:16:47.848Z,41.80
2018-02-19T05:19:15.314Z,35.30
2018-02-19T05:21:42.785Z,37.00
2018-02-19T05:24:10.256Z,37.73
2018-02-19T05:26:37.703Z,43.10
2018-02-19T05:29:05.147Z,37.30
2018-02-19T05:31:32.610Z,36.40
2018-02-19T05:34:00.060Z,37.07
2018-02-19T05:36:27.518Z,36.73
2018-02-19T05:38:54.970Z,41.83
2018-02-19T05:41:22.422Z,37.23
2018-02-19T05:43:49.874Z,37.90
2018-02-19T05:46:17.344Z,37.23
2018-02-19T05:48:44.810Z,34.03
2018-02-19T05:51:12.266Z,41.30
2018-02-19T05:53:39.760Z,40.37
2018-02-19T05:56:07.309Z,43.03
2018-02-19T05:58:35.560Z,40.00
2018-02-19T06:01:03.032Z,34.83
2018-02-19T06:03:30.558Z,35.03
2018-02-19T06:05:58.022Z,38.00
2018-02-19T06:08:26.463Z,44.70
2018-02-19T06:10:54.682Z,36.80
2018-02-19T06:13:22.214Z,39.33
2018-02-19T06:15:49.671Z,46.60
2018-02-19T06:18:17.129Z,38.60
2018-02-19T06:20:44.605Z,50.23
2018-02-19T06:23:12.069Z,49.93
2018-02-19T06:25:39.523Z,43.40
2018-02-19T06:28:06.982Z,42.53
2018-02-19T06:30:34.450Z,38.23
2018-02-19T06:33:01.918Z,45.90
2018-02-19T06:35:29.374Z,43.67
2018-02-19T06:37:56.847Z,40.57
2018-02-19T06:40:24.341Z,39.87
2018-02-19T06:42:51.828Z,44.57
2018-02-19T06:45:19.295Z,53.30
2018-02-19T06:47:46.773Z,37.37
2018-02-19T06:50:14.225Z,38.33
2018-02-19T06:52:41.685Z,50.93
2018-02-19T06:55:09.143Z,39.23
2018-02-19T06:57:36.607Z,42.00
2018-02-19T07:00:04.074Z,45.40
2018-02-19T07:02:31.534Z,47.93
2018-02-19T07:04:59.774Z,49.50
2018-02-19T07:07:27.236Z,38.27
2018-02-19T07:09:55.004Z,45.23
2018-02-19T07:12:22.465Z,38.30
2018-02-19T07:14:49.914Z,41.00
2018-02-19T07:17:17.370Z,41.47
2018-02-19T07:19:44.821Z,40.90
2018-02-19T07:22:12.285Z,44.10
2018-02-19T07:24:39.750Z,42.80
2018-02-19T07:27:07.198Z,45.60
2018-02-19T07:29:34.650Z,41.17
2018-02-19T07:32:03.103Z,42.50
2018-02-19T07:34:30.562Z,51.03
2018-02-19T07:36:58.052Z,40.23
2018-02-19T07:39:25.512Z,41.63
2018-02-19T07:41:53.730Z,41.40
2018-02-19T07:44:21.957Z,41.70
2018-02-19T07:46:49.398Z,43.47
2018-02-19T07:49:16.963Z,36.00
2018-02-19T07:51:44.420Z,36.77
2018-02-19T07:54:11.869Z,38.10
2018-02-19T07:56:39.310Z,35.40
2018-02-19T07:59:06.776Z,41.30
2018-02-19T08:01:34.224Z,40.00
2018-02-19T08:04:01.697Z,44.90
2018-02-19T08:06:29.138Z,37.03
2018-02-19T08:08:56.584Z,38.40
2018-02-19T08:11:24.852Z,38.33
2018-02-19T08:13:53.073Z,38.40
2018-02-19T08:16:20.531Z,41.27
2018-02-19T08:18:47.975Z,46.73
2018-02-19T08:21:15.496Z,34.43
2018-02-19T08:23:43.727Z,37.00
2018-02-19T08:26:11.185Z,38.97
2018-02-19T08:28:38.632Z,37.23
2018-02-19T08:31:06.146Z,41.93
2018-02-19T08:33:33.592Z,44.60
2018-02-19T08:36:01.057Z,36.13
2018-02-19T08:38:29.274Z,36.83
2018-02-19T08:40:56.738Z,29.07
2018-02-19T08:43:24.193Z,32.97
2018-02-19T08:45:51.655Z,35.20
2018-02-19T08:48:19.108Z,35.23
2018-02-19T08:50:46.569Z,25.50
2018-02-19T08:53:14.026Z,26.53
2018-02-19T08:55:41.480Z,33.47
2018-02-19T08:58:08.941Z,29.20
2018-02-19T09:00:36.399Z,27.67
2018-02-19T09:03:03.854Z,32.93
2018-02-19T09:05:31.342Z,28.60
2018-02-19T09:07:58.848Z,30.10
2018-02-19T09:10:26.297Z,30.43
2018-02-19T09:12:54.023Z,30.03
2018-02-19T09:15:21.496Z,30.60
2018-02-19T09:17:48.948Z,31.13
2018-02-19T09:20:16.471Z,33.73
2018-02-19T09:22:43.934Z,30.07
2018-02-19T09:25:11.362Z,28.20
2018-02-19T09:27:38.864Z,40.13
2018-02-19T09:30:06.325Z,32.73
2018-02-19T09:32:33.778Z,26.50
2018-02-19T09:35:01.228Z,27.13
2018-02-19T09:37:28.702Z,22.10
2018-02-19T09:39:56.554Z,27.70
2018-02-19T09:42:23.768Z,26.30
2018-02-19T09:44:51.237Z,24.93
2018-02-19T09:47:18.681Z,23.87
2018-02-19T09:49:46.140Z,29.93
2018-02-19T09:52:13.682Z,21.23
2018-02-19T09:54:41.903Z,27.47
2018-02-19T09:57:09.362Z,22.17
2018-02-19T09:59:36.817Z,26.33
2018-02-19T10:02:04.278Z,24.10
2018-02-19T10:04:31.719Z,23.70
2018-02-19T10:06:59.164Z,26.33
2018-02-19T10:09:26.605Z,25.97
2018-02-19T10:11:54.829Z,28.60
2018-02-19T10:14:22.272Z,23.50
2018-02-19T10:16:49.726Z,24.53
2018-02-19T10:19:17.186Z,24.13
2018-02-19T10:21:44.634Z,22.80
2018-02-19T10:24:12.082Z,25.63
2018-02-19T10:26:39.540Z,26.47
2018-02-19T10:29:07.083Z,31.00
2018-02-19T10:31:35.305Z,28.67
2018-02-19T10:34:02.801Z,25.33
2018-02-19T10:36:31.023Z,30.40
2018-02-19T10:38:58.471Z,28.30
2018-02-19T10:41:25.929Z,22.37
2018-02-19T10:43:53.378Z,25.37
2018-02-19T10:46:20.824Z,27.13
2018-02-19T10:48:48.276Z,25.60
2018-02-19T10:51:16.505Z,27.30
2018-02-19T10:53:43.963Z,24.37
2018-02-19T10:56:11.421Z,30.33
2018-02-19T10:58:43.684Z,32.60
2018-02-19T11:01:11.152Z,32.57
2018-02-19T11:03:38.602Z,32.07
2018-02-19T11:06:06.092Z,24.57
2018-02-19T11:08:33.562Z,26.50
2018-02-19T11:11:01.786Z,25.97
2018-02-19T11:13:29.238Z,27.07
2018-02-19T11:15:56.697Z,30.20
2018-02-19T11:18:24.145Z,32.60
2018-02-19T11:20:51.606Z,29.30
2018-02-19T11:23:19.064Z,26.23
2018-02-19T11:25:46.524Z,27.37
2018-02-19T11:28:13.985Z,26.40
2018-02-19T11:30:41.521Z,24.40
2018-02-19T11:33:08.974Z,22.60
2018-02-19T11:35:36.435Z,23.57
2018-02-19T11:38:03.975Z,26.40
2018-02-19T11:40:32.203Z,24.03
2018-02-19T11:42:59.668Z,26.20
2018-02-19T11:45:27.122Z,36.33
2018-02-19T11:47:54.594Z,25.20
2018-02-19T11:50:22.171Z,24.80
2018-02-19T11:52:49.623Z,26.00
2018-02-19T11:55:17.160Z,27.37
2018-02-19T11:57:44.685Z,28.67
2018-02-19T12:00:12.151Z,23.37
2018-02-19T12:02:39.588Z,27.57
2018-02-19T12:05:07.050Z,31.07
2018-02-19T12:07:34.493Z,27.80
2018-02-19T12:10:01.955Z,29.30
2018-02-19T12:12:30.185Z,32.00
2018-02-19T12:14:57.642Z,35.33
2018-02-19T12:17:25.103Z,29.80
2018-02-19T12:19:52.562Z,29.43
2018-02-19T12:22:20.020Z,26.10
2018-02-19T12:24:47.466Z,30.60
2018-02-19T12:27:14.964Z,29.13
2018-02-19T12:29:42.403Z,26.20
2018-02-19T12:32:09.860Z,26.10
2018-02-19T12:34:37.342Z,26.40
2018-02-19T12:37:05.574Z,31.30
2018-02-19T12:39:33.042Z,29.50
2018-02-19T12:42:00.476Z,24.53
2018-02-19T12:44:27.931Z,28.37
2018-02-19T12:46:55.370Z,25.43
2018-02-19T12:49:22.814Z,27.70
2018-02-19T12:51:50.269Z,29.57
2018-02-19T12:54:17.714Z,26.87
2018-02-19T12:56:45.922Z,25.93
2018-02-19T12:59:13.396Z,23.73
2018-02-19T13:01:40.877Z,24.13
2018-02-19T13:04:08.330Z,28.67
2018-02-19T13:06:35.825Z,26.73
2018-02-19T13:09:04.057Z,25.47
2018-02-19T13:11:31.574Z,24.53
2018-02-19T13:13:59.012Z,26.40
2018-02-19T13:16:27.234Z,33.73
2018-02-19T13:18:54.682Z,22.87
2018-02-19T13:21:23.154Z,27.27
2018-02-19T13:23:50.597Z,27.30
2018-02-19T13:26:18.049Z,30.13
2018-02-19T13:28:45.496Z,24.40
2018-02-19T13:31:13.735Z,23.23
2018-02-19T13:33:41.200Z,28.90
2018-02-19T13:36:08.679Z,26.13
2018-02-19T13:38:36.947Z,26.87
2018-02-19T13:41:04.410Z,24.97
2018-02-19T13:43:34.816Z,29.67
2018-02-19T13:46:02.327Z,23.30
2018-02-19T13:48:29.769Z,29.50
2018-02-19T13:50:58.041Z,19.50
2018-02-19T13:53:25.487Z,29.00
2018-02-19T13:55:53.802Z,24.93
2018-02-19T13:58:21.247Z,23.43
2018-02-19T14:00:48.688Z,25.53
2018-02-19T14:03:16.937Z,26.20
2018-02-19T14:05:44.384Z,26.73
2018-02-19T14:08:11.900Z,22.67
2018-02-19T14:10:39.353Z,21.97
2018-02-19T14:13:06.790Z,32.10
2018-02-19T14:15:35.013Z,29.17
2018-02-19T14:18:02.466Z,25.07
2018-02-19T14:20:29.930Z,25.43
2018-02-19T14:22:57.369Z,28.00
2018-02-19T14:25:24.854Z,30.57
2018-02-19T14:27:52.360Z,27.47
2018-02-19T14:30:20.679Z,26.20
2018-02-19T14:32:48.142Z,28.70
2018-02-19T14:35:15.585Z,25.80
2018-02-19T14:37:43.073Z,25.13
2018-02-19T14:40:10.576Z,28.37
2018-02-19T14:42:38.025Z,27.93
2018-02-19T14:45:06.240Z,25.87
2018-02-19T14:47:33.709Z,27.37
2018-02-19T14:50:01.168Z,30.27
2018-02-19T14:52:28.633Z,25.77
2018-02-19T14:54:56.182Z,30.13
2018-02-19T14:57:23.647Z,30.83
2018-02-19T14:59:51.173Z,29.90
2018-02-19T15:02:18.586Z,22.97
2018-02-19T15:04:46.029Z,32.03
2018-02-19T15:07:13.486Z,28.73
2018-02-19T15:09:40.985Z,28.40
2018-02-19T15:12:09.202Z,30.53
2018-02-19T15:14:36.657Z,33.10
2018-02-19T15:17:04.110Z,27.83
2018-02-19T15:19:31.675Z,28.67
2018-02-19T15:21:59.138Z,31.40
2018-02-19T15:24:26.588Z,25.43
2018-02-19T15:26:54.030Z,28.80
2018-02-19T15:29:21.491Z,34.80
2018-02-19T15:31:48.956Z,26.27
2018-02-19T15:34:16.405Z,32.40
2018-02-19T15:36:43.872Z,21.80
2018-02-19T15:39:11.318Z,32.10
2018-02-19T15:41:38.775Z,32.17
2018-02-19T15:44:06.225Z,30.30
2018-02-19T15:46:33.697Z,24.10
2018-02-19T15:49:01.162Z,31.83
2018-02-19T15:51:28.626Z,33.33
2018-02-19T15:53:56.073Z,30.97
2018-02-19T15:56:23.534Z,30.03
2018-02-19T15:58:50.973Z,32.27
2018-02-19T16:01:18.453Z,30.70
2018-02-19T16:03:45.896Z,27.97
2018-02-19T16:06:13.357Z,26.57
2018-02-19T16:08:40.809Z,29.83
2018-02-19T16:11:08.262Z,34.77
2018-02-19T16:13:35.722Z,29.97
2018-02-19T16:16:03.184Z,33.33
2018-02-19T16:18:30.645Z,27.23
2018-02-19T16:20:58.094Z,27.83
2018-02-19T16:23:25.664Z,25.70
2018-02-19T16:25:53.137Z,27.00
2018-02-19T16:28:20.599Z,29.77
2018-02-19T16:30:48.153Z,28.73
2018-02-19T16:33:15.695Z,31.70
2018-02-19T16:35:43.160Z,31.30
2018-02-19T16:38:10.650Z,27.97
2018-02-19T16:40:38.123Z,25.57
2018-02-19T16:43:05.568Z,30.53
2018-02-19T16:45:33.015Z,26.10
2018-02-19T16:48:00.448Z,29.57
2018-02-19T16:50:28.659Z,25.43
2018-02-19T16:52:56.889Z,33.50
2018-02-19T16:55:24.331Z,26.87
2018-02-19T16:57:51.780Z,26.40
2018-02-19T17:00:19.231Z,23.77
2018-02-19T17:02:46.691Z,30.23
2018-02-19T17:05:14.187Z,21.43
2018-02-19T17:07:41.634Z,24.07
2018-02-19T17:10:09.088Z,23.50
2018-02-19T17:12:36.568Z,30.00
2018-02-19T17:15:04.026Z,27.43
2018-02-19T17:17:31.491Z,22.83
2018-02-19T17:19:58.949Z,28.10
2018-02-19T17:22:26.413Z,26.10
2018-02-19T17:24:53.854Z,26.43
2018-02-19T17:27:21.324Z,27.43
2018-02-19T17:29:48.761Z,25.23
2018-02-19T17:32:16.250Z,29.33
2018-02-19T17:34:43.697Z,25.13
2018-02-19T17:37:11.154Z,24.00
2018-02-19T17:39:38.705Z,32.70
2018-02-19T17:42:06.154Z,20.07
2018-02-19T17:44:33.618Z,26.33
2018-02-19T17:47:01.075Z,25.80
2018-02-19T17:49:28.535Z,24.30
2018-02-19T17:51:55.994Z,30.77
2018-02-19T17:54:23.442Z,21.00
2018-02-19T17:56:50.920Z,22.17
2018-02-19T17:59:18.400Z,21.67
2018-02-19T18:01:46.628Z,27.97
2018-02-19T18:04:14.111Z,28.77
2018-02-19T18:06:41.584Z,29.90
2018-02-19T18:09:09.807Z,30.40
2018-02-19T18:11:37.269Z,25.70
2018-02-19T18:14:04.705Z,26.37
2018-02-19T18:16:32.151Z,21.33
2018-02-19T18:18:59.628Z,23.17
2018-02-19T18:21:27.096Z,21.40
2018-02-19T18:23:54.549Z,27.47
2018-02-19T18:26:22.006Z,26.00
2018-02-19T18:28:49.461Z,22.20
2018-02-19T18:31:16.920Z,25.67
2018-02-19T18:33:44.365Z,28.47
2018-02-19T18:36:11.817Z,25.00
2018-02-19T18:38:39.283Z,32.47
2018-02-19T18:41:06.724Z,20.37
2018-02-19T18:43:34.218Z,20.43
2018-02-19T18:46:01.664Z,30.93
2018-02-19T18:48:29.133Z,30.70
2018-02-19T18:50:56.571Z,29.17
2018-02-19T18:53:24.090Z,23.93
2018-02-19T18:55:52.312Z,31.07
2018-02-19T18:58:19.764Z,32.97
2018-02-19T19:00:47.215Z,27.90
2018-02-19T19:03:14.671Z,35.07
2018-02-19T19:05:42.172Z,32.97
2018-02-19T19:08:21.534Z,34.60
2018-02-19T19:10:56.632Z,30.83
2018-02-19T19:13:24.089Z,33.73
2018-02-19T19:15:51.545Z,37.70
2018-02-19T19:18:19.040Z,30.60
2018-02-19T19:20:47.373Z,34.67
2018-02-19T19:23:14.838Z,31.53
2018-02-19T19:25:42.283Z,31.40
2018-02-19T19:28:09.738Z,25.27
2018-02-19T19:30:37.184Z,32.83
2018-02-19T19:33:04.633Z,32.73
2018-02-19T19:35:32.176Z,30.27
2018-02-19T19:38:00.393Z,36.90
2018-02-19T19:40:27.842Z,36.10
2018-02-19T19:42:55.306Z,34.10
2018-02-19T19:45:22.750Z,30.50
2018-02-19T19:47:50.198Z,29.87
2018-02-19T19:50:17.632Z,30.30
2018-02-19T19:52:45.857Z,29.57
2018-02-19T19:55:13.295Z,30.90
2018-02-19T19:57:40.743Z,27.07
2018-02-19T20:00:08.186Z,30.80
2018-02-19T20:02:36.390Z,31.00
2018-02-19T20:05:03.845Z,32.67
2018-02-19T20:07:31.290Z,27.43
2018-02-19T20:09:58.736Z,33.57
2018-02-19T20:12:26.186Z,29.27
2018-02-19T20:14:54.394Z,28.73
2018-02-19T20:17:21.836Z,31.43
2018-02-19T20:19:49.293Z,27.20
2018-02-19T20:22:16.746Z,34.20
2018-02-19T20:24:44.850Z,28.27
2018-02-19T20:27:12.319Z,30.57
2018-02-19T20:29:39.766Z,30.40
2018-02-19T20:32:07.224Z,38.73
2018-02-19T20:34:34.670Z,35.27
2018-02-19T20:37:02.105Z,35.00
2018-02-19T20:39:29.584Z,35.37
2018-02-19T20:41:57.018Z,27.43
2018-02-19T20:44:24.489Z,36.17
2018-02-19T20:46:51.938Z,41.30
2018-02-19T20:49:19.401Z,36.10
2018-02-19T20:51:46.843Z,36.60
2018-02-19T20:54:14.297Z,33.23
2018-02-19T20:56:42.582Z,30.40
2018-02-19T20:59:10.043Z,24.33
2018-02-19T21:01:37.587Z,26.07
2018-02-19T21:04:05.172Z,27.93
2018-02-19T21:06:32.731Z,26.27
2018-02-19T21:09:00.176Z,29.43
2018-02-19T21:11:27.717Z,26.93
2018-02-19T21:13:55.941Z,27.10
2018-02-19T21:16:23.400Z,30.77
2018-02-19T21:18:50.920Z,32.30
2018-02-19T21:21:18.473Z,28.17
2018-02-19T21:23:46.689Z,29.40
2018-02-19T21:26:15.250Z,27.00
2018-02-19T21:28:43.556Z,33.50
2018-02-19T21:31:11.082Z,34.33
2018-02-19T21:33:38.686Z,30.20
2018-02-19T21:36:06.184Z,33.93
2018-02-19T21:38:34.476Z,47.17
2018-02-19T21:41:02.946Z,46.07
2018-02-19T21:43:30.405Z,38.80
2018-02-19T21:45:58.895Z,33.43
2018-02-19T21:48:26.359Z,27.87
2018-02-19T21:50:53.798Z,27.00
2018-02-19T21:53:22.079Z,30.43
2018-02-19T21:55:49.527Z,28.60
2018-02-19T21:58:17.819Z,30.30
2018-02-19T22:00:45.264Z,27.47
2018-02-19T22:03:13.558Z,32.97
2018-02-19T22:05:41.020Z,36.50
2018-02-19T22:08:08.558Z,30.77
2018-02-19T22:10:36.778Z,32.43
2018-02-19T22:13:04.308Z,26.83
2018-02-19T22:15:31.758Z,30.00
2018-02-19T22:17:59.222Z,29.97
2018-02-19T22:20:26.684Z,30.60
2018-02-19T22:22:54.138Z,36.73
2018-02-19T22:25:21.593Z,29.20
2018-02-19T22:27:49.043Z,34.50
2018-02-19T22:30:17.255Z,33.20
2018-02-19T22:32:44.705Z,32.80
2018-02-19T22:35:12.167Z,33.20
2018-02-19T22:37:39.688Z,30.97
2018-02-19T22:40:07.141Z,32.73
2018-02-19T22:42:35.362Z,37.80
2018-02-19T22:45:02.836Z,39.40
2018-02-19T22:47:30.280Z,38.90
2018-02-19T22:49:58.507Z,37.70
2018-02-19T22:52:26.725Z,31.27
2018-02-19T22:54:54.181Z,35.90
2018-02-19T22:57:21.681Z,31.13
2018-02-19T22:59:49.908Z,39.40
2018-02-19T23:02:17.348Z,39.37
2018-02-19T23:04:44.804Z,30.23
2018-02-19T23:07:12.249Z,34.73
2018-02-19T23:09:40.541Z,31.40
2018-02-19T23:12:07.991Z,31.37
2018-02-19T23:14:35.466Z,30.40
2018-02-19T23:17:02.925Z,27.70
2018-02-19T23:19:30.382Z,35.53
2018-02-19T23:21:57.824Z,23.43
2018-02-19T23:24:25.269Z,34.70
2018-02-19T23:26:52.709Z,33.77
2018-02-19T23:29:20.944Z,35.70
2018-02-19T23:31:48.410Z,35.73
2018-02-19T23:34:15.867Z,35.13
2018-02-19T23:36:43.309Z,34.70
2018-02-19T23:39:10.784Z,29.57
2018-02-19T23:41:38.228Z,30.53
2018-02-19T23:44:05.681Z,31.07
2018-02-19T23:46:33.135Z,42.23
2018-02-19T23:49:00.589Z,25.27
2018-02-19T23:51:28.041Z,38.00
2018-02-19T23:53:55.489Z,36.47
2018-02-19T23:56:22.935Z,29.40
2018-02-19T23:58:50.394Z,29.70
